sensor_id;sensor_type;location;lat;lon;timestamp;temperature;humidity
4411;DHT22;2218;51.408;7.208;2023-03-03T00:00:06;17.80;27.30
4411;DHT22;2218;51.408;7.208;2023-03-03T00:02:43;17.80;27.40
4411;DHT22;2218;51.408;7.208;2023-03-03T00:05:11;17.80;27.40
4411;DHT22;2218;51.408;7.208;2023-03-03T00:07:42;17.80;27.40
4411;DHT22;2218;51.408;7.208;2023-03-03T00:10:10;17.80;27.40
4411;DHT22;2218;51.408;7.208;2023-03-03T00:12:45;17.80;27.40
4411;DHT22;2218;51.408;7.208;2023-03-03T00:15:15;17.80;27.40
4411;DHT22;2218;51.408;7.208;2023-03-03T00:17:43;17.70;27.40
4411;DHT22;2218;51.408;7.208;2023-03-03T00:20:33;17.70;27.40
4411;DHT22;2218;51.408;7.208;2023-03-03T00:23:19;17.70;27.40
4411;DHT22;2218;51.408;7.208;2023-03-03T00:25:55;17.70;27.40
4411;DHT22;2218;51.408;7.208;2023-03-03T00:28:26;17.70;27.40
4411;DHT22;2218;51.408;7.208;2023-03-03T00:30:57;17.70;27.40
4411;DHT22;2218;51.408;7.208;2023-03-03T00:33:28;17.70;27.50
4411;DHT22;2218;51.408;7.208;2023-03-03T00:36:12;17.70;27.50
4411;DHT22;2218;51.408;7.208;2023-03-03T00:38:53;17.70;27.50
4411;DHT22;2218;51.408;7.208;2023-03-03T00:41:25;17.70;27.50
4411;DHT22;2218;51.408;7.208;2023-03-03T00:43:53;17.70;27.50
4411;DHT22;2218;51.408;7.208;2023-03-03T00:46:22;17.70;27.50
4411;DHT22;2218;51.408;7.208;2023-03-03T00:48:50;17.70;27.50
4411;DHT22;2218;51.408;7.208;2023-03-03T00:51:26;17.60;27.40
4411;DHT22;2218;51.408;7.208;2023-03-03T00:53:54;17.60;27.50
4411;DHT22;2218;51.408;7.208;2023-03-03T00:56:22;17.60;27.50
4411;DHT22;2218;51.408;7.208;2023-03-03T00:58:50;17.60;27.50
4411;DHT22;2218;51.408;7.208;2023-03-03T01:01:20;17.60;27.50
4411;DHT22;2218;51.408;7.208;2023-03-03T01:03:50;17.60;27.50
4411;DHT22;2218;51.408;7.208;2023-03-03T01:06:17;17.60;27.50
4411;DHT22;2218;51.408;7.208;2023-03-03T01:08:45;17.60;27.60
4411;DHT22;2218;51.408;7.208;2023-03-03T01:11:16;17.60;27.50
4411;DHT22;2218;51.408;7.208;2023-03-03T01:13:47;17.60;27.60
4411;DHT22;2218;51.408;7.208;2023-03-03T01:16:18;17.60;27.60
4411;DHT22;2218;51.408;7.208;2023-03-03T01:18:45;17.60;27.60
4411;DHT22;2218;51.408;7.208;2023-03-03T01:21:12;17.60;27.60
4411;DHT22;2218;51.408;7.208;2023-03-03T01:23:39;17.50;27.50
4411;DHT22;2218;51.408;7.208;2023-03-03T01:26:08;17.50;27.50
4411;DHT22;2218;51.408;7.208;2023-03-03T01:28:35;17.60;27.60
4411;DHT22;2218;51.408;7.208;2023-03-03T01:31:03;17.50;27.60
4411;DHT22;2218;51.408;7.208;2023-03-03T01:33:31;17.50;27.60
4411;DHT22;2218;51.408;7.208;2023-03-03T01:35:59;17.50;27.60
4411;DHT22;2218;51.408;7.208;2023-03-03T01:38:26;17.50;27.60
4411;DHT22;2218;51.408;7.208;2023-03-03T01:40:55;17.50;27.60
4411;DHT22;2218;51.408;7.208;2023-03-03T01:43:27;17.50;27.60
4411;DHT22;2218;51.408;7.208;2023-03-03T01:49:12;17.50;27.60
4411;DHT22;2218;51.408;7.208;2023-03-03T01:51:47;17.40;27.60
4411;DHT22;2218;51.408;7.208;2023-03-03T01:54:20;17.50;27.70
4411;DHT22;2218;51.408;7.208;2023-03-03T01:56:54;17.40;27.50
4411;DHT22;2218;51.408;7.208;2023-03-03T01:59:28;17.40;27.50
4411;DHT22;2218;51.408;7.208;2023-03-03T02:01:59;17.50;27.60
4411;DHT22;2218;51.408;7.208;2023-03-03T02:04:27;17.50;27.70
4411;DHT22;2218;51.408;7.208;2023-03-03T02:06:58;17.50;27.60
4411;DHT22;2218;51.408;7.208;2023-03-03T02:09:35;17.60;27.50
4411;DHT22;2218;51.408;7.208;2023-03-03T02:12:10;17.60;27.60
4411;DHT22;2218;51.408;7.208;2023-03-03T02:14:43;17.60;27.50
4411;DHT22;2218;51.408;7.208;2023-03-03T02:17:10;17.60;27.50
4411;DHT22;2218;51.408;7.208;2023-03-03T02:19:43;17.70;27.50
4411;DHT22;2218;51.408;7.208;2023-03-03T02:22:21;17.70;27.50
4411;DHT22;2218;51.408;7.208;2023-03-03T02:24:59;17.70;27.40
4411;DHT22;2218;51.408;7.208;2023-03-03T02:27:30;17.70;27.50
4411;DHT22;2218;51.408;7.208;2023-03-03T02:30:08;17.70;27.50
4411;DHT22;2218;51.408;7.208;2023-03-03T02:32:37;17.70;27.40
4411;DHT22;2218;51.408;7.208;2023-03-03T02:35:25;17.70;27.40
4411;DHT22;2218;51.408;7.208;2023-03-03T02:38:05;17.80;27.40
4411;DHT22;2218;51.408;7.208;2023-03-03T02:40:51;17.80;27.40
4411;DHT22;2218;51.408;7.208;2023-03-03T02:43:32;17.80;27.40
4411;DHT22;2218;51.408;7.208;2023-03-03T02:46:05;17.80;27.40
4411;DHT22;2218;51.408;7.208;2023-03-03T02:48:32;17.80;27.40
4411;DHT22;2218;51.408;7.208;2023-03-03T02:50:59;17.80;27.40
4411;DHT22;2218;51.408;7.208;2023-03-03T02:53:26;17.80;27.40
4411;DHT22;2218;51.408;7.208;2023-03-03T02:55:53;17.80;27.40
4411;DHT22;2218;51.408;7.208;2023-03-03T02:58:20;17.80;27.40
4411;DHT22;2218;51.408;7.208;2023-03-03T03:00:48;17.90;27.50
4411;DHT22;2218;51.408;7.208;2023-03-03T03:03:18;17.90;27.50
4411;DHT22;2218;51.408;7.208;2023-03-03T03:05:46;17.90;27.50
4411;DHT22;2218;51.408;7.208;2023-03-03T03:08:13;17.90;27.50
4411;DHT22;2218;51.408;7.208;2023-03-03T03:10:40;17.90;27.40
4411;DHT22;2218;51.408;7.208;2023-03-03T03:13:07;17.90;27.40
4411;DHT22;2218;51.408;7.208;2023-03-03T03:15:34;17.90;27.40
4411;DHT22;2218;51.408;7.208;2023-03-03T03:18:04;17.90;27.50
4411;DHT22;2218;51.408;7.208;2023-03-03T03:20:35;17.90;27.50
4411;DHT22;2218;51.408;7.208;2023-03-03T03:23:04;17.90;27.50
4411;DHT22;2218;51.408;7.208;2023-03-03T03:25:32;17.90;27.40
4411;DHT22;2218;51.408;7.208;2023-03-03T03:28:01;17.90;27.40
4411;DHT22;2218;51.408;7.208;2023-03-03T03:30:28;17.90;27.40
4411;DHT22;2218;51.408;7.208;2023-03-03T03:32:55;17.90;27.40
4411;DHT22;2218;51.408;7.208;2023-03-03T03:35:24;17.90;27.40
4411;DHT22;2218;51.408;7.208;2023-03-03T03:37:51;17.90;27.40
4411;DHT22;2218;51.408;7.208;2023-03-03T03:40:18;17.90;27.40
4411;DHT22;2218;51.408;7.208;2023-03-03T03:42:45;17.90;27.40
4411;DHT22;2218;51.408;7.208;2023-03-03T03:45:12;17.90;27.50
4411;DHT22;2218;51.408;7.208;2023-03-03T03:47:43;17.90;27.80
4411;DHT22;2218;51.408;7.208;2023-03-03T03:50:11;17.90;27.40
4411;DHT22;2218;51.408;7.208;2023-03-03T03:52:41;17.90;27.50
4411;DHT22;2218;51.408;7.208;2023-03-03T03:55:09;17.90;27.40
4411;DHT22;2218;51.408;7.208;2023-03-03T03:57:38;18.00;27.40
4411;DHT22;2218;51.408;7.208;2023-03-03T04:00:07;18.00;27.40
4411;DHT22;2218;51.408;7.208;2023-03-03T04:02:48;18.00;27.40
4411;DHT22;2218;51.408;7.208;2023-03-03T04:05:16;18.00;27.40
4411;DHT22;2218;51.408;7.208;2023-03-03T04:07:45;18.00;27.50
4411;DHT22;2218;51.408;7.208;2023-03-03T04:10:13;18.00;27.40
4411;DHT22;2218;51.408;7.208;2023-03-03T04:12:40;18.00;27.50
4411;DHT22;2218;51.408;7.208;2023-03-03T04:15:12;18.00;27.90
4411;DHT22;2218;51.408;7.208;2023-03-03T04:17:41;18.00;27.40
4411;DHT22;2218;51.408;7.208;2023-03-03T04:20:11;18.00;27.50
4411;DHT22;2218;51.408;7.208;2023-03-03T04:22:41;18.00;27.50
4411;DHT22;2218;51.408;7.208;2023-03-03T04:25:11;18.00;27.50
4411;DHT22;2218;51.408;7.208;2023-03-03T04:27:42;18.00;27.40
4411;DHT22;2218;51.408;7.208;2023-03-03T04:30:13;18.00;27.50
4411;DHT22;2218;51.408;7.208;2023-03-03T04:32:44;18.00;27.50
4411;DHT22;2218;51.408;7.208;2023-03-03T04:35:12;18.00;27.40
4411;DHT22;2218;51.408;7.208;2023-03-03T04:37:42;18.00;27.40
4411;DHT22;2218;51.408;7.208;2023-03-03T04:40:11;18.00;27.40
4411;DHT22;2218;51.408;7.208;2023-03-03T04:42:40;18.00;27.40
4411;DHT22;2218;51.408;7.208;2023-03-03T04:45:09;18.00;27.40
4411;DHT22;2218;51.408;7.208;2023-03-03T04:47:37;18.00;27.50
4411;DHT22;2218;51.408;7.208;2023-03-03T04:50:05;18.00;27.40
4411;DHT22;2218;51.408;7.208;2023-03-03T04:52:34;18.00;27.40
4411;DHT22;2218;51.408;7.208;2023-03-03T04:55:02;18.00;27.40
4411;DHT22;2218;51.408;7.208;2023-03-03T04:57:31;18.00;27.40
4411;DHT22;2218;51.408;7.208;2023-03-03T04:59:58;18.00;27.40
4411;DHT22;2218;51.408;7.208;2023-03-03T05:02:25;18.00;27.40
4411;DHT22;2218;51.408;7.208;2023-03-03T05:04:52;18.00;27.40
4411;DHT22;2218;51.408;7.208;2023-03-03T05:07:19;18.00;27.40
4411;DHT22;2218;51.408;7.208;2023-03-03T05:09:46;18.00;27.40
4411;DHT22;2218;51.408;7.208;2023-03-03T05:12:13;18.00;27.40
4411;DHT22;2218;51.408;7.208;2023-03-03T05:14:41;18.00;27.40
4411;DHT22;2218;51.408;7.208;2023-03-03T05:17:08;18.00;27.40
4411;DHT22;2218;51.408;7.208;2023-03-03T05:19:35;18.00;27.40
4411;DHT22;2218;51.408;7.208;2023-03-03T05:22:02;18.10;27.40
4411;DHT22;2218;51.408;7.208;2023-03-03T05:24:29;18.10;27.40
4411;DHT22;2218;51.408;7.208;2023-03-03T05:26:56;18.20;27.40
4411;DHT22;2218;51.408;7.208;2023-03-03T05:29:23;18.20;27.40
4411;DHT22;2218;51.408;7.208;2023-03-03T05:31:52;18.20;27.30
4411;DHT22;2218;51.408;7.208;2023-03-03T05:34:18;18.20;27.30
4411;DHT22;2218;51.408;7.208;2023-03-03T05:36:45;18.20;27.30
4411;DHT22;2218;51.408;7.208;2023-03-03T05:39:12;18.30;27.30
4411;DHT22;2218;51.408;7.208;2023-03-03T05:41:39;18.30;27.30
4411;DHT22;2218;51.408;7.208;2023-03-03T05:44:06;18.30;27.30
4411;DHT22;2218;51.408;7.208;2023-03-03T05:46:34;18.30;27.30
4411;DHT22;2218;51.408;7.208;2023-03-03T05:49:02;18.30;27.70
4411;DHT22;2218;51.408;7.208;2023-03-03T05:51:29;18.30;27.30
4411;DHT22;2218;51.408;7.208;2023-03-03T05:53:55;18.30;27.30
4411;DHT22;2218;51.408;7.208;2023-03-03T05:56:22;18.30;27.20
4411;DHT22;2218;51.408;7.208;2023-03-03T05:58:49;18.30;27.30
4411;DHT22;2218;51.408;7.208;2023-03-03T06:01:16;18.30;27.20
4411;DHT22;2218;51.408;7.208;2023-03-03T06:03:43;18.30;27.30
4411;DHT22;2218;51.408;7.208;2023-03-03T06:06:11;18.30;27.30
4411;DHT22;2218;51.408;7.208;2023-03-03T06:08:40;18.20;27.30
4411;DHT22;2218;51.408;7.208;2023-03-03T06:11:07;18.30;27.30
4411;DHT22;2218;51.408;7.208;2023-03-03T06:13:35;18.30;27.30
4411;DHT22;2218;51.408;7.208;2023-03-03T06:16:02;18.30;27.30
4411;DHT22;2218;51.408;7.208;2023-03-03T06:18:29;18.30;27.30
4411;DHT22;2218;51.408;7.208;2023-03-03T06:20:56;18.30;27.30
4411;DHT22;2218;51.408;7.208;2023-03-03T06:23:24;18.30;27.30
4411;DHT22;2218;51.408;7.208;2023-03-03T06:25:51;18.30;27.30
4411;DHT22;2218;51.408;7.208;2023-03-03T06:28:18;18.30;27.30
4411;DHT22;2218;51.408;7.208;2023-03-03T06:30:45;18.30;27.30
4411;DHT22;2218;51.408;7.208;2023-03-03T06:33:12;18.30;27.30
4411;DHT22;2218;51.408;7.208;2023-03-03T06:35:39;18.20;27.20
4411;DHT22;2218;51.408;7.208;2023-03-03T06:38:06;18.20;27.20
4411;DHT22;2218;51.408;7.208;2023-03-03T06:40:34;18.20;27.20
4411;DHT22;2218;51.408;7.208;2023-03-03T06:43:01;18.20;27.30
4411;DHT22;2218;51.408;7.208;2023-03-03T06:45:28;18.20;27.20
4411;DHT22;2218;51.408;7.208;2023-03-03T06:47:55;18.20;27.20
4411;DHT22;2218;51.408;7.208;2023-03-03T06:50:22;18.20;27.20
4411;DHT22;2218;51.408;7.208;2023-03-03T06:52:58;18.20;27.20
4411;DHT22;2218;51.408;7.208;2023-03-03T06:55:28;18.20;27.20
4411;DHT22;2218;51.408;7.208;2023-03-03T06:57:56;18.20;27.20
4411;DHT22;2218;51.408;7.208;2023-03-03T07:00:26;18.20;27.20
4411;DHT22;2218;51.408;7.208;2023-03-03T07:02:58;18.10;27.20
4411;DHT22;2218;51.408;7.208;2023-03-03T07:05:27;18.20;27.20
4411;DHT22;2218;51.408;7.208;2023-03-03T07:07:55;18.20;27.20
4411;DHT22;2218;51.408;7.208;2023-03-03T07:10:24;18.20;27.20
4411;DHT22;2218;51.408;7.208;2023-03-03T07:12:52;18.20;27.20
4411;DHT22;2218;51.408;7.208;2023-03-03T07:15:27;18.20;27.20
4411;DHT22;2218;51.408;7.208;2023-03-03T07:17:59;18.20;27.20
4411;DHT22;2218;51.408;7.208;2023-03-03T07:20:31;18.20;27.20
4411;DHT22;2218;51.408;7.208;2023-03-03T07:23:07;18.20;27.20
4411;DHT22;2218;51.408;7.208;2023-03-03T07:25:41;18.20;27.20
4411;DHT22;2218;51.408;7.208;2023-03-03T07:28:18;18.20;27.20
4411;DHT22;2218;51.408;7.208;2023-03-03T07:30:49;18.20;27.20
4411;DHT22;2218;51.408;7.208;2023-03-03T07:33:22;18.30;27.70
4411;DHT22;2218;51.408;7.208;2023-03-03T07:35:51;18.30;27.30
4411;DHT22;2218;51.408;7.208;2023-03-03T07:38:24;18.30;27.30
4411;DHT22;2218;51.408;7.208;2023-03-03T07:40:58;18.20;27.30
4411;DHT22;2218;51.408;7.208;2023-03-03T07:43:34;18.20;27.30
4411;DHT22;2218;51.408;7.208;2023-03-03T07:46:21;18.20;27.30
4411;DHT22;2218;51.408;7.208;2023-03-03T07:48:52;18.20;27.40
4411;DHT22;2218;51.408;7.208;2023-03-03T07:51:22;18.20;27.40
4411;DHT22;2218;51.408;7.208;2023-03-03T07:53:53;18.20;27.40
4411;DHT22;2218;51.408;7.208;2023-03-03T07:56:29;18.20;27.40
4411;DHT22;2218;51.408;7.208;2023-03-03T07:59:02;18.20;27.50
4411;DHT22;2218;51.408;7.208;2023-03-03T08:01:43;18.20;27.50
4411;DHT22;2218;51.408;7.208;2023-03-03T08:04:20;18.20;27.50
4411;DHT22;2218;51.408;7.208;2023-03-03T08:06:52;18.20;27.50
4411;DHT22;2218;51.408;7.208;2023-03-03T08:09:52;18.20;27.50
4411;DHT22;2218;51.408;7.208;2023-03-03T08:12:32;18.30;27.30
4411;DHT22;2218;51.408;7.208;2023-03-03T08:15:21;18.40;27.40
4411;DHT22;2218;51.408;7.208;2023-03-03T08:17:52;18.50;27.30
4411;DHT22;2218;51.408;7.208;2023-03-03T08:20:38;18.60;27.50
4411;DHT22;2218;51.408;7.208;2023-03-03T08:23:15;18.60;27.10
4411;DHT22;2218;51.408;7.208;2023-03-03T08:25:44;18.60;27.20
4411;DHT22;2218;51.408;7.208;2023-03-03T08:28:12;18.60;26.90
4411;DHT22;2218;51.408;7.208;2023-03-03T08:30:40;18.70;26.80
4411;DHT22;2218;51.408;7.208;2023-03-03T08:33:09;18.70;26.70
4411;DHT22;2218;51.408;7.208;2023-03-03T08:35:36;18.70;26.60
4411;DHT22;2218;51.408;7.208;2023-03-03T08:38:04;18.70;26.50
4411;DHT22;2218;51.408;7.208;2023-03-03T08:40:32;18.80;26.60
4411;DHT22;2218;51.408;7.208;2023-03-03T08:42:59;18.80;26.50
4411;DHT22;2218;51.408;7.208;2023-03-03T08:45:27;18.90;26.50
4411;DHT22;2218;51.408;7.208;2023-03-03T08:47:54;18.90;26.40
4411;DHT22;2218;51.408;7.208;2023-03-03T08:50:22;18.90;26.30
4411;DHT22;2218;51.408;7.208;2023-03-03T08:52:49;18.90;26.30
4411;DHT22;2218;51.408;7.208;2023-03-03T08:55:17;18.90;26.20
4411;DHT22;2218;51.408;7.208;2023-03-03T08:57:44;19.00;26.30
4411;DHT22;2218;51.408;7.208;2023-03-03T09:00:13;19.00;26.20
4411;DHT22;2218;51.408;7.208;2023-03-03T09:02:42;19.00;26.20
4411;DHT22;2218;51.408;7.208;2023-03-03T09:05:10;19.00;26.20
4411;DHT22;2218;51.408;7.208;2023-03-03T09:07:39;19.00;26.20
4411;DHT22;2218;51.408;7.208;2023-03-03T09:10:08;19.00;26.10
4411;DHT22;2218;51.408;7.208;2023-03-03T09:12:39;19.00;26.10
4411;DHT22;2218;51.408;7.208;2023-03-03T09:15:16;19.00;26.10
4411;DHT22;2218;51.408;7.208;2023-03-03T09:17:46;19.00;26.10
4411;DHT22;2218;51.408;7.208;2023-03-03T09:20:23;19.00;26.10
4411;DHT22;2218;51.408;7.208;2023-03-03T09:22:59;19.00;26.10
4411;DHT22;2218;51.408;7.208;2023-03-03T09:25:47;19.00;26.10
4411;DHT22;2218;51.408;7.208;2023-03-03T09:28:23;19.00;26.20
4411;DHT22;2218;51.408;7.208;2023-03-03T09:30:52;19.00;26.30
4411;DHT22;2218;51.408;7.208;2023-03-03T09:33:27;19.10;26.30
4411;DHT22;2218;51.408;7.208;2023-03-03T09:36:08;19.10;26.30
4411;DHT22;2218;51.408;7.208;2023-03-03T09:38:46;19.10;26.30
4411;DHT22;2218;51.408;7.208;2023-03-03T09:41:42;19.10;26.40
4411;DHT22;2218;51.408;7.208;2023-03-03T09:44:35;19.10;26.30
4411;DHT22;2218;51.408;7.208;2023-03-03T09:47:33;19.10;26.30
4411;DHT22;2218;51.408;7.208;2023-03-03T09:50:16;19.10;26.30
4411;DHT22;2218;51.408;7.208;2023-03-03T09:53:00;19.10;26.30
4411;DHT22;2218;51.408;7.208;2023-03-03T09:55:47;19.20;26.40
4411;DHT22;2218;51.408;7.208;2023-03-03T09:58:35;19.20;26.30
4411;DHT22;2218;51.408;7.208;2023-03-03T10:01:37;19.20;26.30
4411;DHT22;2218;51.408;7.208;2023-03-03T10:04:29;19.20;26.40
4411;DHT22;2218;51.408;7.208;2023-03-03T10:07:24;19.20;26.30
4411;DHT22;2218;51.408;7.208;2023-03-03T10:10:09;19.20;26.30
4411;DHT22;2218;51.408;7.208;2023-03-03T10:13:01;19.20;26.40
4411;DHT22;2218;51.408;7.208;2023-03-03T10:15:50;19.10;26.30
4411;DHT22;2218;51.408;7.208;2023-03-03T10:18:40;19.20;26.40
4411;DHT22;2218;51.408;7.208;2023-03-03T10:21:18;19.10;26.30
4411;DHT22;2218;51.408;7.208;2023-03-03T10:23:55;19.20;26.40
4411;DHT22;2218;51.408;7.208;2023-03-03T10:26:45;19.10;26.40
4411;DHT22;2218;51.408;7.208;2023-03-03T10:29:28;19.20;26.50
4411;DHT22;2218;51.408;7.208;2023-03-03T10:32:23;19.20;26.50
4411;DHT22;2218;51.408;7.208;2023-03-03T10:35:24;19.30;26.50
4411;DHT22;2218;51.408;7.208;2023-03-03T10:38:24;19.20;26.40
4411;DHT22;2218;51.408;7.208;2023-03-03T10:41:08;19.30;26.40
4411;DHT22;2218;51.408;7.208;2023-03-03T10:43:51;19.30;26.40
4411;DHT22;2218;51.408;7.208;2023-03-03T10:46:50;19.30;26.30
4411;DHT22;2218;51.408;7.208;2023-03-03T10:49:32;19.30;26.30
4411;DHT22;2218;51.408;7.208;2023-03-03T10:52:21;19.30;26.30
4411;DHT22;2218;51.408;7.208;2023-03-03T10:55:23;19.30;26.30
4411;DHT22;2218;51.408;7.208;2023-03-03T10:58:26;19.30;26.30
4411;DHT22;2218;51.408;7.208;2023-03-03T11:01:13;19.30;26.30
4411;DHT22;2218;51.408;7.208;2023-03-03T11:04:19;19.30;26.30
4411;DHT22;2218;51.408;7.208;2023-03-03T11:07:01;19.30;26.30
4411;DHT22;2218;51.408;7.208;2023-03-03T11:09:53;19.30;26.30
4411;DHT22;2218;51.408;7.208;2023-03-03T11:12:41;19.30;26.30
4411;DHT22;2218;51.408;7.208;2023-03-03T11:15:29;19.30;26.30
4411;DHT22;2218;51.408;7.208;2023-03-03T11:18:16;19.30;26.20
4411;DHT22;2218;51.408;7.208;2023-03-03T11:21:02;19.30;26.60
4411;DHT22;2218;51.408;7.208;2023-03-03T11:23:50;19.40;26.30
4411;DHT22;2218;51.408;7.208;2023-03-03T11:26:35;19.40;26.20
4411;DHT22;2218;51.408;7.208;2023-03-03T11:29:23;19.40;26.20
4411;DHT22;2218;51.408;7.208;2023-03-03T11:32:03;19.40;26.20
4411;DHT22;2218;51.408;7.208;2023-03-03T11:35:04;19.50;26.30
4411;DHT22;2218;51.408;7.208;2023-03-03T11:37:53;19.50;26.20
4411;DHT22;2218;51.408;7.208;2023-03-03T11:40:47;19.50;26.20
4411;DHT22;2218;51.408;7.208;2023-03-03T11:43:21;19.50;26.20
4411;DHT22;2218;51.408;7.208;2023-03-03T11:45:56;19.50;26.10
4411;DHT22;2218;51.408;7.208;2023-03-03T11:48:34;19.50;26.10
4411;DHT22;2218;51.408;7.208;2023-03-03T11:51:06;19.50;26.10
4411;DHT22;2218;51.408;7.208;2023-03-03T11:53:47;19.50;26.00
4411;DHT22;2218;51.408;7.208;2023-03-03T11:56:26;19.50;25.90
4411;DHT22;2218;51.408;7.208;2023-03-03T12:02:25;19.50;25.90
4411;DHT22;2218;51.408;7.208;2023-03-03T12:05:13;19.50;25.90
4411;DHT22;2218;51.408;7.208;2023-03-03T12:07:57;19.50;25.90
4411;DHT22;2218;51.408;7.208;2023-03-03T12:10:34;19.50;25.90
4411;DHT22;2218;51.408;7.208;2023-03-03T12:13:13;19.50;25.70
4411;DHT22;2218;51.408;7.208;2023-03-03T12:15:53;19.50;25.80
4411;DHT22;2218;51.408;7.208;2023-03-03T12:18:43;19.50;25.90
4411;DHT22;2218;51.408;7.208;2023-03-03T12:21:28;19.60;25.90
4411;DHT22;2218;51.408;7.208;2023-03-03T12:24:24;19.60;26.00
4411;DHT22;2218;51.408;7.208;2023-03-03T12:27:10;19.60;25.90
4411;DHT22;2218;51.408;7.208;2023-03-03T12:29:52;19.60;25.60
4411;DHT22;2218;51.408;7.208;2023-03-03T12:32:42;19.60;25.80
4411;DHT22;2218;51.408;7.208;2023-03-03T12:35:26;19.60;25.60
4411;DHT22;2218;51.408;7.208;2023-03-03T12:38:05;19.60;25.80
4411;DHT22;2218;51.408;7.208;2023-03-03T12:40:47;19.60;25.90
4411;DHT22;2218;51.408;7.208;2023-03-03T12:43:32;19.70;25.60
4411;DHT22;2218;51.408;7.208;2023-03-03T12:46:15;19.70;26.00
4411;DHT22;2218;51.408;7.208;2023-03-03T12:48:46;19.70;26.10
4411;DHT22;2218;51.408;7.208;2023-03-03T12:51:26;19.70;26.00
4411;DHT22;2218;51.408;7.208;2023-03-03T12:54:29;19.70;26.10
4411;DHT22;2218;51.408;7.208;2023-03-03T12:57:16;19.70;26.10
4411;DHT22;2218;51.408;7.208;2023-03-03T13:00:02;19.70;26.00
4411;DHT22;2218;51.408;7.208;2023-03-03T13:02:48;19.70;26.00
4411;DHT22;2218;51.408;7.208;2023-03-03T13:05:29;19.70;25.90
4411;DHT22;2218;51.408;7.208;2023-03-03T13:08:24;19.70;25.90
4411;DHT22;2218;51.408;7.208;2023-03-03T13:11:08;19.70;26.00
4411;DHT22;2218;51.408;7.208;2023-03-03T13:13:51;19.70;26.10
4411;DHT22;2218;51.408;7.208;2023-03-03T13:16:28;19.70;26.00
4411;DHT22;2218;51.408;7.208;2023-03-03T13:19:00;19.70;26.20
4411;DHT22;2218;51.408;7.208;2023-03-03T13:21:37;19.70;26.10
4411;DHT22;2218;51.408;7.208;2023-03-03T13:24:19;19.70;26.20
4411;DHT22;2218;51.408;7.208;2023-03-03T13:26:54;19.70;26.10
4411;DHT22;2218;51.408;7.208;2023-03-03T13:29:29;19.70;26.10
4411;DHT22;2218;51.408;7.208;2023-03-03T13:32:08;19.70;26.30
4411;DHT22;2218;51.408;7.208;2023-03-03T13:34:47;19.70;26.40
4411;DHT22;2218;51.408;7.208;2023-03-03T13:37:20;19.70;26.50
4411;DHT22;2218;51.408;7.208;2023-03-03T13:39:55;19.70;26.50
4411;DHT22;2218;51.408;7.208;2023-03-03T13:42:31;19.70;26.20
4411;DHT22;2218;51.408;7.208;2023-03-03T13:45:15;19.70;26.50
4411;DHT22;2218;51.408;7.208;2023-03-03T13:47:54;19.70;26.60
4411;DHT22;2218;51.408;7.208;2023-03-03T13:50:32;19.70;26.20
4411;DHT22;2218;51.408;7.208;2023-03-03T13:53:24;19.70;26.20
4411;DHT22;2218;51.408;7.208;2023-03-03T13:56:08;19.70;26.20
4411;DHT22;2218;51.408;7.208;2023-03-03T13:58:49;19.70;26.20
4411;DHT22;2218;51.408;7.208;2023-03-03T14:01:31;19.70;26.10
4411;DHT22;2218;51.408;7.208;2023-03-03T14:04:18;19.60;26.20
4411;DHT22;2218;51.408;7.208;2023-03-03T14:07:02;19.60;26.00
4411;DHT22;2218;51.408;7.208;2023-03-03T14:09:56;19.60;26.00
4411;DHT22;2218;51.408;7.208;2023-03-03T14:12:39;19.60;26.10
4411;DHT22;2218;51.408;7.208;2023-03-03T14:15:17;19.60;26.20
4411;DHT22;2218;51.408;7.208;2023-03-03T14:18:03;19.60;25.90
4411;DHT22;2218;51.408;7.208;2023-03-03T14:20:46;19.60;26.10
4411;DHT22;2218;51.408;7.208;2023-03-03T14:23:18;19.60;26.10
4411;DHT22;2218;51.408;7.208;2023-03-03T14:25:53;19.60;26.10
4411;DHT22;2218;51.408;7.208;2023-03-03T14:28:26;19.60;26.10
4411;DHT22;2218;51.408;7.208;2023-03-03T14:30:55;19.60;26.10
4411;DHT22;2218;51.408;7.208;2023-03-03T14:33:28;19.70;26.10
4411;DHT22;2218;51.408;7.208;2023-03-03T14:36:04;19.60;26.00
4411;DHT22;2218;51.408;7.208;2023-03-03T14:38:42;19.60;26.00
4411;DHT22;2218;51.408;7.208;2023-03-03T14:41:19;19.60;26.00
4411;DHT22;2218;51.408;7.208;2023-03-03T14:44:22;19.60;26.00
4411;DHT22;2218;51.408;7.208;2023-03-03T14:47:16;19.60;26.00
4411;DHT22;2218;51.408;7.208;2023-03-03T14:49:48;19.60;26.00
4411;DHT22;2218;51.408;7.208;2023-03-03T14:52:23;19.60;26.00
4411;DHT22;2218;51.408;7.208;2023-03-03T14:54:52;19.60;26.00
4411;DHT22;2218;51.408;7.208;2023-03-03T14:57:22;19.60;26.10
4411;DHT22;2218;51.408;7.208;2023-03-03T15:00:28;19.60;26.10
4411;DHT22;2218;51.408;7.208;2023-03-03T15:03:03;19.60;26.10
4411;DHT22;2218;51.408;7.208;2023-03-03T15:05:50;19.50;26.10
4411;DHT22;2218;51.408;7.208;2023-03-03T15:08:31;19.50;26.10
4411;DHT22;2218;51.408;7.208;2023-03-03T15:11:13;19.50;26.10
4411;DHT22;2218;51.408;7.208;2023-03-03T15:13:45;19.50;26.10
4411;DHT22;2218;51.408;7.208;2023-03-03T15:16:16;19.50;26.10
4411;DHT22;2218;51.408;7.208;2023-03-03T15:19:13;19.50;26.10
4411;DHT22;2218;51.408;7.208;2023-03-03T15:22:00;19.50;26.20
4411;DHT22;2218;51.408;7.208;2023-03-03T15:24:39;19.50;26.20
4411;DHT22;2218;51.408;7.208;2023-03-03T15:27:18;19.50;26.30
4411;DHT22;2218;51.408;7.208;2023-03-03T15:29:59;19.50;26.20
4411;DHT22;2218;51.408;7.208;2023-03-03T15:32:38;19.50;26.20
4411;DHT22;2218;51.408;7.208;2023-03-03T15:35:22;19.40;26.20
4411;DHT22;2218;51.408;7.208;2023-03-03T15:38:01;19.50;26.30
4411;DHT22;2218;51.408;7.208;2023-03-03T15:40:43;19.40;26.20
4411;DHT22;2218;51.408;7.208;2023-03-03T15:43:21;19.40;26.30
4411;DHT22;2218;51.408;7.208;2023-03-03T15:45:59;19.40;26.30
4411;DHT22;2218;51.408;7.208;2023-03-03T15:48:49;19.40;26.30
4411;DHT22;2218;51.408;7.208;2023-03-03T15:51:50;19.40;26.40
4411;DHT22;2218;51.408;7.208;2023-03-03T15:54:36;19.40;26.30
4411;DHT22;2218;51.408;7.208;2023-03-03T15:57:15;19.40;26.40
4411;DHT22;2218;51.408;7.208;2023-03-03T16:00:05;19.40;26.40
4411;DHT22;2218;51.408;7.208;2023-03-03T16:02:53;19.30;26.30
4411;DHT22;2218;51.408;7.208;2023-03-03T16:05:27;19.30;26.40
4411;DHT22;2218;51.408;7.208;2023-03-03T16:08:01;19.30;26.40
4411;DHT22;2218;51.408;7.208;2023-03-03T16:10:44;19.30;26.40
4411;DHT22;2218;51.408;7.208;2023-03-03T16:13:36;19.30;26.40
4411;DHT22;2218;51.408;7.208;2023-03-03T16:16:25;19.30;26.40
4411;DHT22;2218;51.408;7.208;2023-03-03T16:19:10;19.30;26.40
4411;DHT22;2218;51.408;7.208;2023-03-03T16:22:08;19.30;26.50
4411;DHT22;2218;51.408;7.208;2023-03-03T16:24:58;19.30;26.50
4411;DHT22;2218;51.408;7.208;2023-03-03T16:27:38;19.20;26.40
4411;DHT22;2218;51.408;7.208;2023-03-03T16:30:24;19.30;26.50
4411;DHT22;2218;51.408;7.208;2023-03-03T16:33:01;19.20;26.40
4411;DHT22;2218;51.408;7.208;2023-03-03T16:35:41;19.20;26.50
4411;DHT22;2218;51.408;7.208;2023-03-03T16:38:14;19.20;26.50
4411;DHT22;2218;51.408;7.208;2023-03-03T16:40:48;19.20;26.50
4411;DHT22;2218;51.408;7.208;2023-03-03T16:43:26;19.20;26.50
4411;DHT22;2218;51.408;7.208;2023-03-03T16:46:17;19.20;26.60
4411;DHT22;2218;51.408;7.208;2023-03-03T16:49:01;19.20;26.50
4411;DHT22;2218;51.408;7.208;2023-03-03T16:51:40;19.10;26.50
4411;DHT22;2218;51.408;7.208;2023-03-03T16:54:19;19.10;26.50
4411;DHT22;2218;51.408;7.208;2023-03-03T16:57:02;19.10;26.50
4411;DHT22;2218;51.408;7.208;2023-03-03T16:59:49;19.10;26.50
4411;DHT22;2218;51.408;7.208;2023-03-03T17:02:42;19.10;26.60
4411;DHT22;2218;51.408;7.208;2023-03-03T17:05:26;19.10;26.60